This is the latest recevied weather packets stored in our database for station/object KD5BIG-13. If no packets are shown the sender has not sent any weather packets the latest 1 day(s).
| Time | Temp. | Humidity | Pressure | Rain* | Wind** | Luminosity | Snow |
|---|---|---|---|---|---|---|---|
| 1777986287 | 17.78° C | 88% | 1016.2 hPa | 0 mm | 0 m/s | 121 W/m² | - |
| 1777985984 | 17.78° C | 88% | 1016.1 hPa | 0 mm | 0 m/s | 132 W/m² | - |
| 1777985681 | 17.22° C | 87% | 1016.1 hPa | 0 mm | 0 m/s | 115 W/m² | - |
| 1777985378 | 16.67° C | 89% | 1016 hPa | 0 mm | 0 m/s | 90 W/m² | - |
| 1777985075 | 16.67° C | 90% | 1015.9 hPa | 0 mm | 0 m/s | 90 W/m² | - |
| 1777984771 | 16.67° C | 91% | 1016 hPa | 0 mm | 0 m/s | 80 W/m² | - |
| 1777984468 | 16.11° C | 92% | 1016 hPa | 0 mm | 0 m/s | 51 W/m² | - |
| 1777984163 | 16.11° C | 91% | 1015.8 hPa | 0 mm | 0 m/s | 50 W/m² | - |
| 1777983861 | 16.11° C | 92% | 1015.7 hPa | 0 mm | 0.45 m/s, 309° | 52 W/m² | - |
| 1777983558 | 16.11° C | 93% | 1015.6 hPa | 0 mm | 0 m/s | 45 W/m² | - |
| 1777983255 | 15.56° C | 93% | 1015.4 hPa | 0 mm | 0 m/s | 41 W/m² | - |
| 1777982950 | 15.56° C | 93% | 1015.5 hPa | 0 mm | 0.45 m/s, 298° | 37 W/m² | - |
| 1777982647 | 15.56° C | 93% | 1015.5 hPa | 0 mm | 0.89 m/s, 353° | 30 W/m² | - |
| 1777982346 | 15.56° C | 93% | 1015.4 hPa | 0 mm | 0.89 m/s, 322° | 24 W/m² | - |
| 1777982043 | 15.56° C | 93% | 1015.6 hPa | 0 mm | 1.34 m/s, 335° | 19 W/m² | - |
| 1777981741 | 15° C | 93% | 1015.5 hPa | 0 mm | 0.89 m/s, 357° | 16 W/m² | - |
| 1777981437 | 15° C | 93% | 1015.6 hPa | 0 mm | 0.89 m/s, 341° | 13 W/m² | - |
| 1777981133 | 15° C | 94% | 1015.4 hPa | 0 mm | 0.89 m/s, 349° | 10 W/m² | - |
| 1777980830 | 15° C | 94% | 1015.6 hPa | 0 mm | 0 m/s | 7 W/m² | - |
| 1777980526 | 14.44° C | 94% | 1015.3 hPa | 0 mm | 0.45 m/s, 318° | 5 W/m² | - |
| 1777980224 | 14.44° C | 94% | 1015.4 hPa | 0 mm | 0.89 m/s, 298° | 3 W/m² | - |
| 1777979919 | 14.44° C | 94% | 1015.3 hPa | 0 mm | 1.34 m/s, 328° | 2 W/m² | - |
| 1777979614 | 14.44° C | 94% | 1015.2 hPa | 0 mm | 0.45 m/s, 313° | 1 W/m² | - |
| 1777979311 | 14.44° C | 93% | 1015.3 hPa | 0 mm | 0.89 m/s, 293° | 0 W/m² | - |
| 1777979008 | 14.44° C | 93% | 1015.3 hPa | 0 mm | 0.89 m/s, 320° | 0 W/m² | - |
* Rain latest hour (hover to see other rain measurements)
** Current wind speed in m/s (hover to see current wind gust speed)